This is the latest recevied weather packets stored in our database for station/object DF9PV-5. If no packets are shown the sender has not sent any weather packets the latest 10 day(s).
| Time | Temp. | Humidity | Pressure | Rain* | Wind** | Luminosity | Snow |
|---|---|---|---|---|---|---|---|
| 1777475730 | 19.44° C | 24% | 1023.3 hPa | 0 mm | - | - | - |
| 1777472738 | 18.89° C | 28% | 1023.5 hPa | 0 mm | - | - | - |
| 1777472130 | 19.44° C | 27% | 1023.5 hPa | 0 mm | - | - | - |
| 1777471235 | 18.89° C | 26% | 1023.6 hPa | 0 mm | - | - | - |
| 1777470930 | 18.89° C | 26% | 1023.6 hPa | 0 mm | - | - | - |
| 1777469122 | 19.44° C | 27% | 1023.7 hPa | 0 mm | - | - | - |
| 1777467331 | 19.44° C | 27% | 1023.7 hPa | 0 mm | - | - | - |
| 1777466130 | 19.44° C | 27% | 1023.7 hPa | 0 mm | - | - | - |
| 1777463447 | 19.44° C | 27% | 1024 hPa | 0 mm | - | - | - |
| 1777458931 | 18.33° C | 27% | 1024.2 hPa | 0 mm | - | - | - |
| 1777458323 | 18.33° C | 27% | 1024.3 hPa | 0 mm | - | - | - |
| 1777458039 | 18.33° C | 28% | 1024.3 hPa | 0 mm | - | - | - |
| 1777452643 | 16.67° C | 30% | 1024.4 hPa | 0 mm | - | - | - |
| 1777450819 | 16.11° C | 31% | 1024.5 hPa | 0 mm | - | - | - |
| 1777449923 | 15.56° C | 32% | 1024.4 hPa | 0 mm | - | - | - |
| 1777449619 | 15.56° C | 32% | 1024.3 hPa | 0 mm | - | - | - |
| 1777444819 | 13.33° C | 37% | 1024.1 hPa | 0 mm | - | - | - |
| 1777444531 | 12.78° C | 38% | 1024 hPa | 0 mm | - | - | - |
| 1777443923 | 10° C | 51% | 1023.9 hPa | 0 mm | - | - | - |
| 1777441219 | 7.78° C | 57% | 1023.6 hPa | 0 mm | - | - | - |
| 1777440627 | 7.22° C | 56% | 1023.6 hPa | 0 mm | - | - | - |
| 1777438547 | 5.56° C | 62% | 1023.4 hPa | 0 mm | - | - | - |
| 1777434931 | 5.56° C | 62% | 1023.1 hPa | 0 mm | - | - | - |
| 1777434627 | 5.56° C | 62% | 1023.1 hPa | 0 mm | - | - | - |
| 1777433440 | 6.11° C | 60% | 1023 hPa | 0 mm | - | - | - |
* Rain latest hour (hover to see other rain measurements)
** Current wind speed in m/s (hover to see current wind gust speed)